sensor_id;sensor_type;location;lat;lon;timestamp;pressure;altitude;pressure_sealevel;temperature;humidity
62524;BME280;53689;56.878;60.672;2022-09-01T00:00:24;97538.44;;;23.31;48.55
62524;BME280;53689;56.878;60.672;2022-09-01T00:02:51;97533.34;;;23.41;48.04
62524;BME280;53689;56.878;60.672;2022-09-01T00:05:19;97534.22;;;23.54;48.21
62524;BME280;53689;56.878;60.672;2022-09-01T00:07:48;97541.41;;;23.60;47.61
62524;BME280;53689;56.878;60.672;2022-09-01T00:10:16;97546.47;;;23.38;48.13
62524;BME280;53689;56.878;60.672;2022-09-01T00:12:43;97547.97;;;23.34;48.10
62524;BME280;53689;56.878;60.672;2022-09-01T00:15:11;97551.03;;;23.19;48.65
62524;BME280;53689;56.878;60.672;2022-09-01T00:17:39;97549.84;;;23.14;49.16
62524;BME280;53689;56.878;60.672;2022-09-01T00:20:08;97543.53;;;22.83;49.99
62524;BME280;53689;56.878;60.672;2022-09-01T00:22:35;97541.00;;;23.07;49.10
62524;BME280;53689;56.878;60.672;2022-09-01T00:25:05;97542.34;;;23.17;48.52
62524;BME280;53689;56.878;60.672;2022-09-01T00:27:33;97540.53;;;23.10;48.50
62524;BME280;53689;56.878;60.672;2022-09-01T00:30:00;97540.03;;;23.02;48.73
62524;BME280;53689;56.878;60.672;2022-09-01T00:32:28;97545.44;;;23.20;47.89
62524;BME280;53689;56.878;60.672;2022-09-01T00:34:55;97554.94;;;23.04;48.82
62524;BME280;53689;56.878;60.672;2022-09-01T00:37:23;97557.63;;;22.85;48.72
62524;BME280;53689;56.878;60.672;2022-09-01T00:39:50;97560.34;;;22.60;49.84
62524;BME280;53689;56.878;60.672;2022-09-01T00:42:19;97573.31;;;22.51;49.72
62524;BME280;53689;56.878;60.672;2022-09-01T00:44:46;97569.91;;;22.81;49.00
62524;BME280;53689;56.878;60.672;2022-09-01T00:47:14;97588.50;;;22.71;49.41
62524;BME280;53689;56.878;60.672;2022-09-01T00:49:46;97587.97;;;22.81;49.33
62524;BME280;53689;56.878;60.672;2022-09-01T00:52:21;97597.38;;;22.97;48.33
62524;BME280;53689;56.878;60.672;2022-09-01T00:54:54;97625.50;;;22.64;49.53
62524;BME280;53689;56.878;60.672;2022-09-01T00:57:24;97651.09;;;22.54;49.18
62524;BME280;53689;56.878;60.672;2022-09-01T00:59:56;97659.19;;;22.48;49.34
62524;BME280;53689;56.878;60.672;2022-09-01T01:02:24;97644.13;;;22.33;49.94
62524;BME280;53689;56.878;60.672;2022-09-01T01:04:52;97667.56;;;22.39;49.48
62524;BME280;53689;56.878;60.672;2022-09-01T01:07:21;97688.31;;;22.71;48.62
62524;BME280;53689;56.878;60.672;2022-09-01T01:09:49;97702.63;;;22.71;48.42
62524;BME280;53689;56.878;60.672;2022-09-01T01:12:18;97716.09;;;22.78;48.00
62524;BME280;53689;56.878;60.672;2022-09-01T01:14:48;97715.81;;;22.54;48.49
62524;BME280;53689;56.878;60.672;2022-09-01T01:17:19;97712.44;;;22.66;48.13
62524;BME280;53689;56.878;60.672;2022-09-01T01:19:49;97734.66;;;22.68;48.22
62524;BME280;53689;56.878;60.672;2022-09-01T01:22:25;97730.00;;;22.75;48.34
62524;BME280;53689;56.878;60.672;2022-09-01T01:24:55;97725.53;;;22.62;48.12
62524;BME280;53689;56.878;60.672;2022-09-01T01:27:23;97714.88;;;22.74;48.40
62524;BME280;53689;56.878;60.672;2022-09-01T01:29:51;97710.91;;;22.77;48.26
62524;BME280;53689;56.878;60.672;2022-09-01T01:32:19;97687.28;;;22.72;48.54
62524;BME280;53689;56.878;60.672;2022-09-01T01:34:47;97654.22;;;22.77;47.50
62524;BME280;53689;56.878;60.672;2022-09-01T01:37:15;97612.59;;;22.66;47.82
62524;BME280;53689;56.878;60.672;2022-09-01T01:39:42;97581.91;;;23.04;47.24
62524;BME280;53689;56.878;60.672;2022-09-01T01:42:11;97550.88;;;22.95;47.11
62524;BME280;53689;56.878;60.672;2022-09-01T01:44:39;97507.06;;;22.55;48.76
62524;BME280;53689;56.878;60.672;2022-09-01T01:47:11;97517.94;;;22.67;48.03
62524;BME280;53689;56.878;60.672;2022-09-01T01:49:40;97567.03;;;22.76;47.82
62524;BME280;53689;56.878;60.672;2022-09-01T01:52:08;97607.44;;;23.08;47.49
62524;BME280;53689;56.878;60.672;2022-09-01T01:54:35;97608.31;;;23.02;47.43
62524;BME280;53689;56.878;60.672;2022-09-01T01:57:03;97599.91;;;22.92;47.06
62524;BME280;53689;56.878;60.672;2022-09-01T01:59:33;97593.63;;;22.98;47.64
62524;BME280;53689;56.878;60.672;2022-09-01T02:02:00;97573.59;;;23.06;47.38
62524;BME280;53689;56.878;60.672;2022-09-01T02:04:28;97564.75;;;23.17;46.68
62524;BME280;53689;56.878;60.672;2022-09-01T02:06:55;97545.66;;;23.37;46.08
62524;BME280;53689;56.878;60.672;2022-09-01T02:09:23;97528.94;;;22.91;47.57
62524;BME280;53689;56.878;60.672;2022-09-01T02:11:51;97515.72;;;22.39;48.72
62524;BME280;53689;56.878;60.672;2022-09-01T02:14:18;97513.31;;;21.98;49.69
62524;BME280;53689;56.878;60.672;2022-09-01T02:16:47;97510.16;;;22.34;49.54
62524;BME280;53689;56.878;60.672;2022-09-01T02:19:15;97508.13;;;22.73;48.51
62524;BME280;53689;56.878;60.672;2022-09-01T02:21:43;97497.06;;;22.81;48.36
62524;BME280;53689;56.878;60.672;2022-09-01T02:24:10;97488.63;;;22.52;48.51
62524;BME280;53689;56.878;60.672;2022-09-01T02:26:40;97477.41;;;21.79;50.48
62524;BME280;53689;56.878;60.672;2022-09-01T02:29:12;97482.16;;;22.09;49.96
62524;BME280;53689;56.878;60.672;2022-09-01T02:31:40;97471.16;;;22.11;50.07
62524;BME280;53689;56.878;60.672;2022-09-01T02:34:09;97467.59;;;22.36;49.64
62524;BME280;53689;56.878;60.672;2022-09-01T02:36:37;97456.50;;;21.74;51.66
62524;BME280;53689;56.878;60.672;2022-09-01T02:39:05;97443.72;;;21.63;51.91
62524;BME280;53689;56.878;60.672;2022-09-01T02:41:34;97439.53;;;22.18;50.17
62524;BME280;53689;56.878;60.672;2022-09-01T02:44:02;97438.63;;;22.06;50.63
62524;BME280;53689;56.878;60.672;2022-09-01T02:46:30;97454.19;;;21.78;51.74
62524;BME280;53689;56.878;60.672;2022-09-01T02:48:58;97459.69;;;21.90;51.47
62524;BME280;53689;56.878;60.672;2022-09-01T02:51:27;97474.81;;;21.59;52.43
62524;BME280;53689;56.878;60.672;2022-09-01T02:53:55;97484.72;;;22.23;51.07
62524;BME280;53689;56.878;60.672;2022-09-01T02:56:24;97484.16;;;22.39;49.86
62524;BME280;53689;56.878;60.672;2022-09-01T02:58:53;97488.47;;;22.66;49.72
62524;BME280;53689;56.878;60.672;2022-09-01T03:01:25;97498.25;;;22.85;49.34
62524;BME280;53689;56.878;60.672;2022-09-01T03:03:55;97490.13;;;22.85;49.20
62524;BME280;53689;56.878;60.672;2022-09-01T03:06:23;97503.78;;;22.91;49.00
62524;BME280;53689;56.878;60.672;2022-09-01T03:08:54;97512.69;;;22.54;50.43
62524;BME280;53689;56.878;60.672;2022-09-01T03:11:23;97524.72;;;22.77;50.58
62524;BME280;53689;56.878;60.672;2022-09-01T03:13:50;97524.22;;;23.05;50.48
62524;BME280;53689;56.878;60.672;2022-09-01T03:16:18;97508.91;;;22.99;49.37
62524;BME280;53689;56.878;60.672;2022-09-01T03:18:46;97510.31;;;23.20;48.62
62524;BME280;53689;56.878;60.672;2022-09-01T03:21:13;97524.19;;;23.24;48.48
62524;BME280;53689;56.878;60.672;2022-09-01T03:23:43;97527.13;;;23.22;48.75
62524;BME280;53689;56.878;60.672;2022-09-01T03:26:13;97533.78;;;23.01;49.10
62524;BME280;53689;56.878;60.672;2022-09-01T03:28:41;97537.09;;;23.03;49.13
62524;BME280;53689;56.878;60.672;2022-09-01T03:31:10;97534.84;;;23.19;49.10
62524;BME280;53689;56.878;60.672;2022-09-01T03:33:37;97522.59;;;23.16;49.45
62524;BME280;53689;56.878;60.672;2022-09-01T03:36:10;97517.59;;;23.20;49.17
62524;BME280;53689;56.878;60.672;2022-09-01T03:38:42;97530.72;;;23.16;49.19
62524;BME280;53689;56.878;60.672;2022-09-01T03:41:09;97535.53;;;23.33;48.49
62524;BME280;53689;56.878;60.672;2022-09-01T03:43:38;97538.38;;;23.19;48.79
62524;BME280;53689;56.878;60.672;2022-09-01T03:46:14;97542.47;;;23.22;48.83
62524;BME280;53689;56.878;60.672;2022-09-01T03:48:42;97548.66;;;23.29;48.52
62524;BME280;53689;56.878;60.672;2022-09-01T03:51:09;97544.44;;;22.96;50.34
62524;BME280;53689;56.878;60.672;2022-09-01T03:53:37;97538.22;;;23.14;49.74
62524;BME280;53689;56.878;60.672;2022-09-01T03:56:05;97555.69;;;22.93;49.83
62524;BME280;53689;56.878;60.672;2022-09-01T03:58:33;97547.28;;;23.20;49.13
62524;BME280;53689;56.878;60.672;2022-09-01T04:01:02;97557.88;;;23.21;49.92
62524;BME280;53689;56.878;60.672;2022-09-01T04:03:33;97566.56;;;23.23;49.63
62524;BME280;53689;56.878;60.672;2022-09-01T04:06:02;97569.47;;;23.03;50.33
62524;BME280;53689;56.878;60.672;2022-09-01T04:08:32;97569.72;;;22.57;51.39
62524;BME280;53689;56.878;60.672;2022-09-01T04:11:03;97574.06;;;23.21;49.22
62524;BME280;53689;56.878;60.672;2022-09-01T04:13:36;97571.09;;;23.30;49.16
62524;BME280;53689;56.878;60.672;2022-09-01T04:16:05;97567.41;;;23.24;49.01
62524;BME280;53689;56.878;60.672;2022-09-01T04:18:33;97562.91;;;23.36;49.49
62524;BME280;53689;56.878;60.672;2022-09-01T04:21:01;97577.59;;;23.22;49.88
62524;BME280;53689;56.878;60.672;2022-09-01T04:23:32;97576.97;;;23.01;50.00
62524;BME280;53689;56.878;60.672;2022-09-01T04:26:07;97578.84;;;22.82;50.83
62524;BME280;53689;56.878;60.672;2022-09-01T04:28:38;97571.34;;;22.84;50.81
62524;BME280;53689;56.878;60.672;2022-09-01T04:31:07;97564.38;;;22.95;50.97
62524;BME280;53689;56.878;60.672;2022-09-01T04:33:37;97570.38;;;22.78;51.66
62524;BME280;53689;56.878;60.672;2022-09-01T04:36:06;97573.81;;;22.85;51.37
62524;BME280;53689;56.878;60.672;2022-09-01T04:38:40;97578.84;;;22.56;51.60
62524;BME280;53689;56.878;60.672;2022-09-01T04:41:08;97567.31;;;22.93;50.75
62524;BME280;53689;56.878;60.672;2022-09-01T04:43:35;97566.56;;;23.05;50.41
62524;BME280;53689;56.878;60.672;2022-09-01T04:46:03;97561.31;;;23.10;50.02
62524;BME280;53689;56.878;60.672;2022-09-01T04:48:32;97546.09;;;23.53;49.45
62524;BME280;53689;56.878;60.672;2022-09-01T04:51:06;97544.59;;;23.01;50.33
62524;BME280;53689;56.878;60.672;2022-09-01T04:53:47;97556.34;;;23.07;50.79
62524;BME280;53689;56.878;60.672;2022-09-01T04:56:17;97552.84;;;22.62;51.64
62524;BME280;53689;56.878;60.672;2022-09-01T04:58:55;97550.44;;;23.17;49.77
62524;BME280;53689;56.878;60.672;2022-09-01T05:01:24;97549.78;;;23.40;49.95
62524;BME280;53689;56.878;60.672;2022-09-01T05:03:54;97546.13;;;22.71;51.03
62524;BME280;53689;56.878;60.672;2022-09-01T05:06:39;97545.91;;;22.22;52.10
62524;BME280;53689;56.878;60.672;2022-09-01T05:09:08;97541.75;;;22.96;50.13
62524;BME280;53689;56.878;60.672;2022-09-01T05:12:05;97537.38;;;23.13;50.01
62524;BME280;53689;56.878;60.672;2022-09-01T05:14:33;97538.38;;;23.68;47.83
62524;BME280;53689;56.878;60.672;2022-09-01T05:17:01;97539.50;;;23.79;47.96
62524;BME280;53689;56.878;60.672;2022-09-01T05:19:30;97548.38;;;23.68;49.28
62524;BME280;53689;56.878;60.672;2022-09-01T05:21:59;97554.06;;;22.41;51.95
62524;BME280;53689;56.878;60.672;2022-09-01T05:24:27;97556.19;;;22.32;52.36
62524;BME280;53689;56.878;60.672;2022-09-01T05:26:58;97549.22;;;22.75;51.52
62524;BME280;53689;56.878;60.672;2022-09-01T05:29:27;97552.81;;;22.69;51.44
62524;BME280;53689;56.878;60.672;2022-09-01T05:31:55;97550.72;;;22.71;51.63
62524;BME280;53689;56.878;60.672;2022-09-01T05:34:25;97572.16;;;22.84;50.78
62524;BME280;53689;56.878;60.672;2022-09-01T05:36:57;97561.00;;;22.99;50.75
62524;BME280;53689;56.878;60.672;2022-09-01T05:39:25;97559.81;;;23.14;49.96
62524;BME280;53689;56.878;60.672;2022-09-01T05:41:53;97549.22;;;22.94;50.54
62524;BME280;53689;56.878;60.672;2022-09-01T05:44:21;97559.53;;;22.59;51.92
62524;BME280;53689;56.878;60.672;2022-09-01T05:46:51;97543.84;;;23.31;50.29
62524;BME280;53689;56.878;60.672;2022-09-01T05:49:19;97541.59;;;23.09;51.46
62524;BME280;53689;56.878;60.672;2022-09-01T05:51:49;97540.25;;;23.19;50.39
62524;BME280;53689;56.878;60.672;2022-09-01T05:54:24;97548.13;;;23.39;49.95
62524;BME280;53689;56.878;60.672;2022-09-01T05:56:52;97537.53;;;23.00;50.75
62524;BME280;53689;56.878;60.672;2022-09-01T05:59:24;97545.84;;;22.80;51.92
62524;BME280;53689;56.878;60.672;2022-09-01T06:02:14;97540.63;;;23.22;51.30
62524;BME280;53689;56.878;60.672;2022-09-01T06:04:42;97534.84;;;23.19;50.93
62524;BME280;53689;56.878;60.672;2022-09-01T06:07:15;97540.56;;;23.29;51.09
62524;BME280;53689;56.878;60.672;2022-09-01T06:09:49;97536.88;;;23.23;51.55
62524;BME280;53689;56.878;60.672;2022-09-01T06:12:20;97538.16;;;23.70;49.66
62524;BME280;53689;56.878;60.672;2022-09-01T06:14:48;97535.91;;;23.36;50.67
62524;BME280;53689;56.878;60.672;2022-09-01T06:17:18;97537.09;;;23.40;50.49
62524;BME280;53689;56.878;60.672;2022-09-01T06:19:46;97535.84;;;23.74;49.82
62524;BME280;53689;56.878;60.672;2022-09-01T06:22:14;97516.25;;;23.10;51.70
62524;BME280;53689;56.878;60.672;2022-09-01T06:24:42;97524.47;;;23.53;50.64
62524;BME280;53689;56.878;60.672;2022-09-01T06:27:14;97527.25;;;23.77;49.87
62524;BME280;53689;56.878;60.672;2022-09-01T06:29:42;97530.03;;;23.21;51.96
62524;BME280;53689;56.878;60.672;2022-09-01T06:32:10;97517.88;;;23.11;52.91
62524;BME280;53689;56.878;60.672;2022-09-01T06:34:39;97530.63;;;23.41;51.98
62524;BME280;53689;56.878;60.672;2022-09-01T06:37:07;97526.91;;;22.86;53.67
62524;BME280;53689;56.878;60.672;2022-09-01T06:39:35;97529.69;;;22.29;55.30
62524;BME280;53689;56.878;60.672;2022-09-01T06:42:03;97525.94;;;22.04;56.10
62524;BME280;53689;56.878;60.672;2022-09-01T06:44:46;97524.66;;;21.82;56.64
62524;BME280;53689;56.878;60.672;2022-09-01T06:47:14;97528.88;;;21.96;56.50
62524;BME280;53689;56.878;60.672;2022-09-01T06:49:41;97531.72;;;22.08;55.60
62524;BME280;53689;56.878;60.672;2022-09-01T06:52:14;97524.97;;;21.53;57.36
62524;BME280;53689;56.878;60.672;2022-09-01T06:54:42;97517.56;;;21.87;57.12
62524;BME280;53689;56.878;60.672;2022-09-01T06:57:10;97515.69;;;21.88;56.75
62524;BME280;53689;56.878;60.672;2022-09-01T07:00:02;97523.06;;;21.67;57.71
62524;BME280;53689;56.878;60.672;2022-09-01T07:02:29;97520.03;;;21.43;58.11
62524;BME280;53689;56.878;60.672;2022-09-01T07:05:15;97524.34;;;21.90;56.62
62524;BME280;53689;56.878;60.672;2022-09-01T07:08:02;97524.13;;;21.53;57.61
62524;BME280;53689;56.878;60.672;2022-09-01T07:10:52;97524.53;;;21.63;58.01
62524;BME280;53689;56.878;60.672;2022-09-01T07:13:39;97519.31;;;21.68;57.40
62524;BME280;53689;56.878;60.672;2022-09-01T07:16:33;97520.16;;;21.69;57.80
62524;BME280;53689;56.878;60.672;2022-09-01T07:19:09;97520.53;;;22.04;56.28
62524;BME280;53689;56.878;60.672;2022-09-01T07:21:36;97516.66;;;22.51;54.85
62524;BME280;53689;56.878;60.672;2022-09-01T07:24:08;97511.66;;;22.73;55.02
62524;BME280;53689;56.878;60.672;2022-09-01T07:26:43;97506.13;;;22.87;53.76
62524;BME280;53689;56.878;60.672;2022-09-01T07:29:14;97506.72;;;22.45;54.69
62524;BME280;53689;56.878;60.672;2022-09-01T07:31:43;97511.69;;;22.48;55.03
62524;BME280;53689;56.878;60.672;2022-09-01T07:34:31;97507.50;;;22.52;55.19
62524;BME280;53689;56.878;60.672;2022-09-01T07:37:07;97503.56;;;22.55;55.35
62524;BME280;53689;56.878;60.672;2022-09-01T07:39:55;97507.69;;;22.76;54.96
62524;BME280;53689;56.878;60.672;2022-09-01T07:42:43;97515.28;;;22.86;54.36
62524;BME280;53689;56.878;60.672;2022-09-01T07:45:51;97516.91;;;23.06;53.48
62524;BME280;53689;56.878;60.672;2022-09-01T07:48:40;97501.59;;;22.81;53.69
62524;BME280;53689;56.878;60.672;2022-09-01T07:51:29;97499.38;;;22.96;53.96
62524;BME280;53689;56.878;60.672;2022-09-01T07:54:06;97505.59;;;22.97;53.55
62524;BME280;53689;56.878;60.672;2022-09-01T07:56:34;97507.56;;;22.90;53.47
62524;BME280;53689;56.878;60.672;2022-09-01T07:59:08;97512.88;;;22.78;54.39
62524;BME280;53689;56.878;60.672;2022-09-01T08:02:01;97511.97;;;23.03;53.58
62524;BME280;53689;56.878;60.672;2022-09-01T08:04:31;97512.78;;;23.22;52.25
62524;BME280;53689;56.878;60.672;2022-09-01T08:06:59;97514.50;;;23.16;53.40
62524;BME280;53689;56.878;60.672;2022-09-01T08:09:27;97512.50;;;23.11;52.65
62524;BME280;53689;56.878;60.672;2022-09-01T08:12:07;97510.84;;;23.10;52.65
62524;BME280;53689;56.878;60.672;2022-09-01T08:14:52;97509.50;;;23.38;51.63
62524;BME280;53689;56.878;60.672;2022-09-01T08:17:41;97520.09;;;23.52;51.41
62524;BME280;53689;56.878;60.672;2022-09-01T08:20:20;97508.38;;;23.58;51.44
62524;BME280;53689;56.878;60.672;2022-09-01T08:22:55;97507.00;;;23.67;50.84
62524;BME280;53689;56.878;60.672;2022-09-01T08:25:25;97500.03;;;23.10;52.61
62524;BME280;53689;56.878;60.672;2022-09-01T08:27:54;97498.75;;;23.50;51.69
62524;BME280;53689;56.878;60.672;2022-09-01T08:30:29;97502.94;;;23.77;50.15
62524;BME280;53689;56.878;60.672;2022-09-01T08:32:57;97499.88;;;23.73;51.05
62524;BME280;53689;56.878;60.672;2022-09-01T08:35:27;97493.38;;;23.62;50.88
62524;BME280;53689;56.878;60.672;2022-09-01T08:37:57;97494.03;;;23.27;52.81
62524;BME280;53689;56.878;60.672;2022-09-01T08:40:26;97482.66;;;23.06;52.72
62524;BME280;53689;56.878;60.672;2022-09-01T08:43:00;97478.03;;;23.44;51.41
62524;BME280;53689;56.878;60.672;2022-09-01T08:45:36;97481.34;;;23.27;52.14
62524;BME280;53689;56.878;60.672;2022-09-01T08:48:15;97483.44;;;23.44;53.33
62524;BME280;53689;56.878;60.672;2022-09-01T08:51:11;97486.00;;;23.39;52.44
62524;BME280;53689;56.878;60.672;2022-09-01T08:54:03;97478.84;;;22.95;53.73
62524;BME280;53689;56.878;60.672;2022-09-01T08:56:33;97485.78;;;23.22;52.95
62524;BME280;53689;56.878;60.672;2022-09-01T08:59:00;97481.59;;;23.07;54.07
62524;BME280;53689;56.878;60.672;2022-09-01T09:02:01;97480.69;;;23.13;54.08
62524;BME280;53689;56.878;60.672;2022-09-01T09:04:47;97483.69;;;23.24;53.19
62524;BME280;53689;56.878;60.672;2022-09-01T09:07:31;97489.63;;;23.33;52.75
62524;BME280;53689;56.878;60.672;2022-09-01T09:10:07;97487.16;;;22.94;54.64
62524;BME280;53689;56.878;60.672;2022-09-01T09:12:45;97482.94;;;23.17;54.19
62524;BME280;53689;56.878;60.672;2022-09-01T09:15:23;97486.84;;;23.02;54.42
62524;BME280;53689;56.878;60.672;2022-09-01T09:17:58;97476.75;;;23.47;52.40
62524;BME280;53689;56.878;60.672;2022-09-01T09:20:46;97474.31;;;23.57;51.92
62524;BME280;53689;56.878;60.672;2022-09-01T09:23:23;97480.13;;;23.73;51.84
62524;BME280;53689;56.878;60.672;2022-09-01T09:25:53;97479.19;;;23.18;54.19
62524;BME280;53689;56.878;60.672;2022-09-01T09:28:20;97480.56;;;23.58;52.73
62524;BME280;53689;56.878;60.672;2022-09-01T09:30:47;97474.47;;;23.62;52.91
62524;BME280;53689;56.878;60.672;2022-09-01T09:33:33;97470.66;;;23.51;52.35
62524;BME280;53689;56.878;60.672;2022-09-01T09:36:20;97470.09;;;23.61;52.43
62524;BME280;53689;56.878;60.672;2022-09-01T09:39:08;97470.97;;;23.74;51.90
62524;BME280;53689;56.878;60.672;2022-09-01T09:41:37;97473.09;;;23.72;52.14
62524;BME280;53689;56.878;60.672;2022-09-01T09:44:14;97460.88;;;23.81;51.84
62524;BME280;53689;56.878;60.672;2022-09-01T09:46:43;97468.78;;;23.52;53.43
62524;BME280;53689;56.878;60.672;2022-09-01T09:49:15;97461.59;;;23.46;54.36
62524;BME280;53689;56.878;60.672;2022-09-01T09:51:46;97459.16;;;23.56;53.20
62524;BME280;53689;56.878;60.672;2022-09-01T09:54:19;97465.13;;;23.27;55.31
62524;BME280;53689;56.878;60.672;2022-09-01T09:56:48;97464.47;;;23.32;56.62
62524;BME280;53689;56.878;60.672;2022-09-01T09:59:30;97456.66;;;22.93;54.85
62524;BME280;53689;56.878;60.672;2022-09-01T10:02:24;97459.22;;;23.19;54.68
62524;BME280;53689;56.878;60.672;2022-09-01T10:04:54;97467.53;;;22.86;55.23
62524;BME280;53689;56.878;60.672;2022-09-01T10:07:31;97462.53;;;23.21;54.10
62524;BME280;53689;56.878;60.672;2022-09-01T10:10:04;97454.97;;;23.11;54.78
62524;BME280;53689;56.878;60.672;2022-09-01T10:12:34;97459.69;;;23.16;55.06
62524;BME280;53689;56.878;60.672;2022-09-01T10:15:04;97459.53;;;23.29;54.96
62524;BME280;53689;56.878;60.672;2022-09-01T10:17:39;97459.22;;;23.37;54.86
62524;BME280;53689;56.878;60.672;2022-09-01T10:20:15;97463.34;;;23.21;55.70
62524;BME280;53689;56.878;60.672;2022-09-01T10:22:43;97462.47;;;23.09;55.41
62524;BME280;53689;56.878;60.672;2022-09-01T10:25:16;97462.34;;;23.04;55.98
62524;BME280;53689;56.878;60.672;2022-09-01T10:27:48;97460.59;;;23.28;55.47
62524;BME280;53689;56.878;60.672;2022-09-01T10:30:18;97461.78;;;23.13;55.68
62524;BME280;53689;56.878;60.672;2022-09-01T10:32:48;97471.13;;;23.48;53.80
62524;BME280;53689;56.878;60.672;2022-09-01T10:35:24;97462.91;;;23.06;56.28
62524;BME280;53689;56.878;60.672;2022-09-01T10:37:54;97467.34;;;23.19;56.09
62524;BME280;53689;56.878;60.672;2022-09-01T10:40:38;97467.19;;;23.13;55.29
62524;BME280;53689;56.878;60.672;2022-09-01T10:43:26;97461.13;;;22.99;56.68
62524;BME280;53689;56.878;60.672;2022-09-01T10:46:09;97463.41;;;23.33;55.18
62524;BME280;53689;56.878;60.672;2022-09-01T10:48:42;97461.94;;;23.37;55.50
62524;BME280;53689;56.878;60.672;2022-09-01T10:51:40;97469.06;;;23.32;55.31
62524;BME280;53689;56.878;60.672;2022-09-01T10:57:47;97464.09;;;23.28;55.21
62524;BME280;53689;56.878;60.672;2022-09-01T11:00:43;97454.28;;;23.16;56.38
62524;BME280;53689;56.878;60.672;2022-09-01T11:03:49;97465.59;;;23.24;55.82
62524;BME280;53689;56.878;60.672;2022-09-01T11:06:52;97472.00;;;23.11;56.06
62524;BME280;53689;56.878;60.672;2022-09-01T11:09:41;97466.84;;;22.91;56.90
62524;BME280;53689;56.878;60.672;2022-09-01T11:15:33;97474.06;;;23.47;55.27
62524;BME280;53689;56.878;60.672;2022-09-01T11:18:02;97475.13;;;23.27;56.37
62524;BME280;53689;56.878;60.672;2022-09-01T11:20:36;97473.03;;;23.29;56.01
62524;BME280;53689;56.878;60.672;2022-09-01T11:23:09;97484.59;;;23.36;55.60
62524;BME280;53689;56.878;60.672;2022-09-01T11:25:40;97477.59;;;23.28;55.87
62524;BME280;53689;56.878;60.672;2022-09-01T11:30:55;97478.72;;;23.21;56.04
62524;BME280;53689;56.878;60.672;2022-09-01T11:33:48;97470.63;;;23.39;55.52
62524;BME280;53689;56.878;60.672;2022-09-01T11:36:26;97487.38;;;23.30;56.15
62524;BME280;53689;56.878;60.672;2022-09-01T11:39:02;97488.63;;;23.27;56.19
62524;BME280;53689;56.878;60.672;2022-09-01T11:41:34;97476.25;;;23.38;55.52
62524;BME280;53689;56.878;60.672;2022-09-01T11:44:11;97476.91;;;23.33;55.84
62524;BME280;53689;56.878;60.672;2022-09-01T11:46:41;97480.09;;;23.30;56.25
62524;BME280;53689;56.878;60.672;2022-09-01T11:49:23;97476.63;;;23.23;56.38
62524;BME280;53689;56.878;60.672;2022-09-01T11:51:52;97477.56;;;23.47;55.44
62524;BME280;53689;56.878;60.672;2022-09-01T11:54:20;97479.81;;;23.01;56.66
62524;BME280;53689;56.878;60.672;2022-09-01T11:56:48;97478.31;;;23.05;56.18
62524;BME280;53689;56.878;60.672;2022-09-01T11:59:29;97476.50;;;22.99;57.18
62524;BME280;53689;56.878;60.672;2022-09-01T12:01:58;97458.84;;;23.34;56.04
62524;BME280;53689;56.878;60.672;2022-09-01T12:04:31;97457.44;;;23.31;55.66
62524;BME280;53689;56.878;60.672;2022-09-01T12:07:01;97460.41;;;23.23;56.30
62524;BME280;53689;56.878;60.672;2022-09-01T12:09:34;97455.47;;;23.20;56.41
62524;BME280;53689;56.878;60.672;2022-09-01T12:12:05;97460.88;;;23.20;56.11
62524;BME280;53689;56.878;60.672;2022-09-01T12:14:33;97466.13;;;23.33;55.35
62524;BME280;53689;56.878;60.672;2022-09-01T12:17:22;97467.06;;;23.58;54.88
62524;BME280;53689;56.878;60.672;2022-09-01T12:19:50;97449.78;;;23.28;55.82
62524;BME280;53689;56.878;60.672;2022-09-01T12:22:18;97451.66;;;23.58;54.63
62524;BME280;53689;56.878;60.672;2022-09-01T12:24:48;97463.28;;;23.28;55.94
62524;BME280;53689;56.878;60.672;2022-09-01T12:27:16;97456.69;;;23.24;56.10
62524;BME280;53689;56.878;60.672;2022-09-01T12:29:44;97456.66;;;23.42;54.72
62524;BME280;53689;56.878;60.672;2022-09-01T12:32:13;97452.22;;;23.48;54.96
62524;BME280;53689;56.878;60.672;2022-09-01T12:34:45;97445.66;;;23.56;54.56
62524;BME280;53689;56.878;60.672;2022-09-01T12:37:19;97457.06;;;23.58;55.30
62524;BME280;53689;56.878;60.672;2022-09-01T12:39:49;97472.22;;;23.59;54.53
62524;BME280;53689;56.878;60.672;2022-09-01T12:42:26;97483.28;;;23.58;55.24
62524;BME280;53689;56.878;60.672;2022-09-01T12:44:56;97458.97;;;23.69;54.03
62524;BME280;53689;56.878;60.672;2022-09-01T12:47:46;97445.91;;;23.66;55.13
62524;BME280;53689;56.878;60.672;2022-09-01T12:50:35;97445.78;;;23.61;54.69
62524;BME280;53689;56.878;60.672;2022-09-01T12:53:14;97445.34;;;23.64;54.35
62524;BME280;53689;56.878;60.672;2022-09-01T12:55:55;97453.28;;;23.59;54.78
62524;BME280;53689;56.878;60.672;2022-09-01T12:58:24;97454.88;;;23.67;54.84
62524;BME280;53689;56.878;60.672;2022-09-01T13:00:54;97470.38;;;23.72;54.81
62524;BME280;53689;56.878;60.672;2022-09-01T13:03:22;97464.47;;;23.63;54.60
62524;BME280;53689;56.878;60.672;2022-09-01T13:05:53;97451.16;;;23.49;55.64
62524;BME280;53689;56.878;60.672;2022-09-01T13:08:22;97454.50;;;23.75;54.51
62524;BME280;53689;56.878;60.672;2022-09-01T13:10:51;97461.06;;;23.67;54.43
62524;BME280;53689;56.878;60.672;2022-09-01T13:13:20;97451.09;;;23.80;54.32
62524;BME280;53689;56.878;60.672;2022-09-01T13:15:49;97464.91;;;23.90;54.39
62524;BME280;53689;56.878;60.672;2022-09-01T13:18:18;97486.22;;;24.10;53.46
62524;BME280;53689;56.878;60.672;2022-09-01T13:20:46;97468.84;;;24.06;53.08
62524;BME280;53689;56.878;60.672;2022-09-01T13:23:16;97463.94;;;23.84;54.46
62524;BME280;53689;56.878;60.672;2022-09-01T13:25:43;97461.84;;;23.98;54.30
62524;BME280;53689;56.878;60.672;2022-09-01T13:28:11;97447.59;;;23.79;54.32